sensor_id;sensor_type;location;lat;lon;timestamp;temperature;humidity
36002;DHT22;22070;50.922;5.430;2022-11-20T00:01:10;5.40;99.90
36002;DHT22;22070;50.922;5.430;2022-11-20T00:03:36;5.40;99.90
36002;DHT22;22070;50.922;5.430;2022-11-20T00:06:03;5.40;99.90
36002;DHT22;22070;50.922;5.430;2022-11-20T00:08:29;5.40;99.90
36002;DHT22;22070;50.922;5.430;2022-11-20T00:10:55;5.40;99.90
36002;DHT22;22070;50.922;5.430;2022-11-20T00:13:21;5.40;99.90
36002;DHT22;22070;50.922;5.430;2022-11-20T00:15:46;5.50;99.90
36002;DHT22;22070;50.922;5.430;2022-11-20T00:18:12;5.40;99.90
36002;DHT22;22070;50.922;5.430;2022-11-20T00:20:38;5.40;99.90
36002;DHT22;22070;50.922;5.430;2022-11-20T00:23:03;5.40;99.90
36002;DHT22;22070;50.922;5.430;2022-11-20T00:25:29;5.40;99.90
36002;DHT22;22070;50.922;5.430;2022-11-20T00:27:54;5.30;99.90
36002;DHT22;22070;50.922;5.430;2022-11-20T00:30:20;5.40;99.90
36002;DHT22;22070;50.922;5.430;2022-11-20T00:32:46;5.30;99.90
36002;DHT22;22070;50.922;5.430;2022-11-20T00:35:11;5.40;99.90
36002;DHT22;22070;50.922;5.430;2022-11-20T00:37:37;5.40;99.90
36002;DHT22;22070;50.922;5.430;2022-11-20T00:40:03;5.40;99.90
36002;DHT22;22070;50.922;5.430;2022-11-20T00:42:28;5.40;99.90
36002;DHT22;22070;50.922;5.430;2022-11-20T00:44:54;5.40;99.90
36002;DHT22;22070;50.922;5.430;2022-11-20T00:47:20;5.40;99.90
36002;DHT22;22070;50.922;5.430;2022-11-20T00:49:46;5.40;99.90
36002;DHT22;22070;50.922;5.430;2022-11-20T00:52:11;5.50;99.90
36002;DHT22;22070;50.922;5.430;2022-11-20T00:54:37;5.40;99.90
36002;DHT22;22070;50.922;5.430;2022-11-20T00:57:03;5.40;99.90
36002;DHT22;22070;50.922;5.430;2022-11-20T00:59:28;5.50;99.90
36002;DHT22;22070;50.922;5.430;2022-11-20T01:01:54;5.40;99.90
36002;DHT22;22070;50.922;5.430;2022-11-20T01:04:19;5.50;99.90
36002;DHT22;22070;50.922;5.430;2022-11-20T01:06:45;5.50;99.90
36002;DHT22;22070;50.922;5.430;2022-11-20T01:09:12;5.50;99.90
36002;DHT22;22070;50.922;5.430;2022-11-20T01:11:41;5.50;99.90
36002;DHT22;22070;50.922;5.430;2022-11-20T01:14:11;5.50;99.90
36002;DHT22;22070;50.922;5.430;2022-11-20T01:16:49;5.40;99.90
36002;DHT22;22070;50.922;5.430;2022-11-20T01:19:20;5.50;99.90
36002;DHT22;22070;50.922;5.430;2022-11-20T01:21:50;5.40;99.90
36002;DHT22;22070;50.922;5.430;2022-11-20T01:24:17;5.40;99.90
36002;DHT22;22070;50.922;5.430;2022-11-20T01:26:45;5.50;99.90
36002;DHT22;22070;50.922;5.430;2022-11-20T01:29:14;5.40;99.90
36002;DHT22;22070;50.922;5.430;2022-11-20T01:31:40;5.30;99.90
36002;DHT22;22070;50.922;5.430;2022-11-20T01:34:09;5.40;99.90
36002;DHT22;22070;50.922;5.430;2022-11-20T01:36:36;5.30;99.90
36002;DHT22;22070;50.922;5.430;2022-11-20T01:39:05;5.20;99.90
36002;DHT22;22070;50.922;5.430;2022-11-20T01:41:33;5.20;99.90
36002;DHT22;22070;50.922;5.430;2022-11-20T01:44:19;5.10;99.90
36002;DHT22;22070;50.922;5.430;2022-11-20T01:47:00;5.10;99.90
36002;DHT22;22070;50.922;5.430;2022-11-20T01:49:51;5.10;99.90
36002;DHT22;22070;50.922;5.430;2022-11-20T01:52:20;5.10;99.90
36002;DHT22;22070;50.922;5.430;2022-11-20T01:54:53;5.10;99.90
36002;DHT22;22070;50.922;5.430;2022-11-20T01:57:20;5.10;99.90
36002;DHT22;22070;50.922;5.430;2022-11-20T01:59:53;5.10;99.90
36002;DHT22;22070;50.922;5.430;2022-11-20T02:02:21;5.20;99.90
36002;DHT22;22070;50.922;5.430;2022-11-20T02:04:48;5.20;99.90
36002;DHT22;22070;50.922;5.430;2022-11-20T02:07:15;5.20;99.90
36002;DHT22;22070;50.922;5.430;2022-11-20T02:09:42;5.20;99.90
36002;DHT22;22070;50.922;5.430;2022-11-20T02:12:07;5.30;99.90
36002;DHT22;22070;50.922;5.430;2022-11-20T02:14:53;5.30;99.90
36002;DHT22;22070;50.922;5.430;2022-11-20T02:17:18;5.40;99.90
36002;DHT22;22070;50.922;5.430;2022-11-20T02:19:44;5.40;99.90
36002;DHT22;22070;50.922;5.430;2022-11-20T02:22:21;5.40;99.90
36002;DHT22;22070;50.922;5.430;2022-11-20T02:24:49;5.40;99.90
36002;DHT22;22070;50.922;5.430;2022-11-20T02:27:16;5.20;99.90
36002;DHT22;22070;50.922;5.430;2022-11-20T02:29:49;5.20;99.90
36002;DHT22;22070;50.922;5.430;2022-11-20T02:32:31;5.20;99.90
36002;DHT22;22070;50.922;5.430;2022-11-20T02:34:57;5.20;99.90
36002;DHT22;22070;50.922;5.430;2022-11-20T02:37:27;5.30;99.90
36002;DHT22;22070;50.922;5.430;2022-11-20T02:39:55;5.30;99.90
36002;DHT22;22070;50.922;5.430;2022-11-20T02:42:21;5.30;99.90
36002;DHT22;22070;50.922;5.430;2022-11-20T02:44:47;5.30;99.90
36002;DHT22;22070;50.922;5.430;2022-11-20T02:47:13;5.30;99.90
36002;DHT22;22070;50.922;5.430;2022-11-20T02:49:38;5.10;99.90
36002;DHT22;22070;50.922;5.430;2022-11-20T02:52:04;5.10;99.90
36002;DHT22;22070;50.922;5.430;2022-11-20T02:54:29;5.20;99.90
36002;DHT22;22070;50.922;5.430;2022-11-20T02:56:56;5.20;99.90
36002;DHT22;22070;50.922;5.430;2022-11-20T02:59:21;5.20;99.90
36002;DHT22;22070;50.922;5.430;2022-11-20T03:01:47;5.30;99.90
36002;DHT22;22070;50.922;5.430;2022-11-20T03:04:13;5.30;99.90
36002;DHT22;22070;50.922;5.430;2022-11-20T03:06:38;5.20;99.90
36002;DHT22;22070;50.922;5.430;2022-11-20T03:09:04;5.30;99.90
36002;DHT22;22070;50.922;5.430;2022-11-20T03:11:29;5.30;99.90
36002;DHT22;22070;50.922;5.430;2022-11-20T03:13:55;5.20;99.90
36002;DHT22;22070;50.922;5.430;2022-11-20T03:16:22;5.30;99.90
36002;DHT22;22070;50.922;5.430;2022-11-20T03:18:48;5.40;99.90
36002;DHT22;22070;50.922;5.430;2022-11-20T03:21:15;5.30;99.90
36002;DHT22;22070;50.922;5.430;2022-11-20T03:23:41;5.40;99.90
36002;DHT22;22070;50.922;5.430;2022-11-20T03:26:09;5.40;99.90
36002;DHT22;22070;50.922;5.430;2022-11-20T03:28:35;5.30;99.90
36002;DHT22;22070;50.922;5.430;2022-11-20T03:31:12;5.30;99.90
36002;DHT22;22070;50.922;5.430;2022-11-20T03:33:40;5.20;99.90
36002;DHT22;22070;50.922;5.430;2022-11-20T03:36:09;5.20;99.90
36002;DHT22;22070;50.922;5.430;2022-11-20T03:38:35;5.30;99.90
36002;DHT22;22070;50.922;5.430;2022-11-20T03:41:03;5.30;99.90
36002;DHT22;22070;50.922;5.430;2022-11-20T03:43:30;5.20;99.90
36002;DHT22;22070;50.922;5.430;2022-11-20T03:45:56;5.20;99.90
36002;DHT22;22070;50.922;5.430;2022-11-20T03:48:22;5.20;99.90
36002;DHT22;22070;50.922;5.430;2022-11-20T03:50:47;5.20;99.90
36002;DHT22;22070;50.922;5.430;2022-11-20T03:53:14;5.10;99.90
36002;DHT22;22070;50.922;5.430;2022-11-20T03:55:40;5.20;99.90
36002;DHT22;22070;50.922;5.430;2022-11-20T03:58:05;5.20;99.90
36002;DHT22;22070;50.922;5.430;2022-11-20T04:00:31;5.20;99.90
36002;DHT22;22070;50.922;5.430;2022-11-20T04:03:01;5.20;99.90
36002;DHT22;22070;50.922;5.430;2022-11-20T04:05:26;5.20;99.90
36002;DHT22;22070;50.922;5.430;2022-11-20T04:07:52;5.30;99.90
36002;DHT22;22070;50.922;5.430;2022-11-20T04:10:18;5.30;99.90
36002;DHT22;22070;50.922;5.430;2022-11-20T04:12:44;5.40;99.90
36002;DHT22;22070;50.922;5.430;2022-11-20T04:15:10;5.40;99.90
36002;DHT22;22070;50.922;5.430;2022-11-20T04:17:35;5.30;99.90
36002;DHT22;22070;50.922;5.430;2022-11-20T04:20:01;5.30;99.90
36002;DHT22;22070;50.922;5.430;2022-11-20T04:22:27;5.30;99.90
36002;DHT22;22070;50.922;5.430;2022-11-20T04:24:53;5.40;99.90
36002;DHT22;22070;50.922;5.430;2022-11-20T04:27:18;5.40;99.90
36002;DHT22;22070;50.922;5.430;2022-11-20T04:29:44;5.30;99.90
36002;DHT22;22070;50.922;5.430;2022-11-20T04:32:09;5.30;99.90
36002;DHT22;22070;50.922;5.430;2022-11-20T04:34:35;5.30;99.90
36002;DHT22;22070;50.922;5.430;2022-11-20T04:37:01;5.30;99.90
36002;DHT22;22070;50.922;5.430;2022-11-20T04:39:26;5.40;99.90
36002;DHT22;22070;50.922;5.430;2022-11-20T04:41:52;5.30;99.90
36002;DHT22;22070;50.922;5.430;2022-11-20T04:44:38;5.30;99.90
36002;DHT22;22070;50.922;5.430;2022-11-20T04:47:03;5.30;99.90
36002;DHT22;22070;50.922;5.430;2022-11-20T04:49:29;5.30;99.90
36002;DHT22;22070;50.922;5.430;2022-11-20T04:51:57;5.20;99.90
36002;DHT22;22070;50.922;5.430;2022-11-20T04:54:22;5.20;99.90
36002;DHT22;22070;50.922;5.430;2022-11-20T04:56:48;5.30;99.90
36002;DHT22;22070;50.922;5.430;2022-11-20T04:59:14;5.30;99.90
36002;DHT22;22070;50.922;5.430;2022-11-20T05:01:39;5.20;99.90
36002;DHT22;22070;50.922;5.430;2022-11-20T05:04:05;5.30;99.90
36002;DHT22;22070;50.922;5.430;2022-11-20T05:06:31;5.20;99.90
36002;DHT22;22070;50.922;5.430;2022-11-20T05:08:57;5.20;99.90
36002;DHT22;22070;50.922;5.430;2022-11-20T05:11:23;5.30;99.90
36002;DHT22;22070;50.922;5.430;2022-11-20T05:13:50;5.30;99.90
36002;DHT22;22070;50.922;5.430;2022-11-20T05:16:23;5.40;99.90
36002;DHT22;22070;50.922;5.430;2022-11-20T05:18:50;5.30;99.90
36002;DHT22;22070;50.922;5.430;2022-11-20T05:21:16;5.40;99.90
36002;DHT22;22070;50.922;5.430;2022-11-20T05:23:42;5.30;99.90
36002;DHT22;22070;50.922;5.430;2022-11-20T05:26:16;5.30;99.90
36002;DHT22;22070;50.922;5.430;2022-11-20T05:28:41;5.20;99.90
36002;DHT22;22070;50.922;5.430;2022-11-20T05:31:09;5.20;99.90
36002;DHT22;22070;50.922;5.430;2022-11-20T05:33:35;5.20;99.90
36002;DHT22;22070;50.922;5.430;2022-11-20T05:36:02;5.20;99.90
36002;DHT22;22070;50.922;5.430;2022-11-20T05:38:28;5.10;99.90
36002;DHT22;22070;50.922;5.430;2022-11-20T05:40:54;5.20;99.90
36002;DHT22;22070;50.922;5.430;2022-11-20T05:43:20;5.20;99.90
36002;DHT22;22070;50.922;5.430;2022-11-20T05:45:53;5.30;99.90
36002;DHT22;22070;50.922;5.430;2022-11-20T05:48:19;5.20;99.90
36002;DHT22;22070;50.922;5.430;2022-11-20T05:50:45;5.20;99.90
36002;DHT22;22070;50.922;5.430;2022-11-20T05:53:11;5.10;99.90
36002;DHT22;22070;50.922;5.430;2022-11-20T05:55:36;5.10;99.90
36002;DHT22;22070;50.922;5.430;2022-11-20T05:58:02;5.20;99.90
36002;DHT22;22070;50.922;5.430;2022-11-20T06:00:28;5.10;99.90
36002;DHT22;22070;50.922;5.430;2022-11-20T06:02:53;5.10;99.90
36002;DHT22;22070;50.922;5.430;2022-11-20T06:05:19;5.20;99.90
36002;DHT22;22070;50.922;5.430;2022-11-20T06:07:44;5.10;99.90
36002;DHT22;22070;50.922;5.430;2022-11-20T06:10:10;5.20;99.90
36002;DHT22;22070;50.922;5.430;2022-11-20T06:12:36;5.10;99.90
36002;DHT22;22070;50.922;5.430;2022-11-20T06:15:03;5.00;99.90
36002;DHT22;22070;50.922;5.430;2022-11-20T06:17:29;5.00;99.90
36002;DHT22;22070;50.922;5.430;2022-11-20T06:19:54;5.10;99.90
36002;DHT22;22070;50.922;5.430;2022-11-20T06:22:20;5.20;99.90
36002;DHT22;22070;50.922;5.430;2022-11-20T06:24:46;5.20;99.90
36002;DHT22;22070;50.922;5.430;2022-11-20T06:27:11;5.20;99.90
36002;DHT22;22070;50.922;5.430;2022-11-20T06:29:37;5.20;99.90
36002;DHT22;22070;50.922;5.430;2022-11-20T06:32:02;5.20;99.90
36002;DHT22;22070;50.922;5.430;2022-11-20T06:34:28;5.20;99.90
36002;DHT22;22070;50.922;5.430;2022-11-20T06:36:54;5.30;99.90
36002;DHT22;22070;50.922;5.430;2022-11-20T06:39:19;5.30;99.90
36002;DHT22;22070;50.922;5.430;2022-11-20T06:41:45;5.30;99.90
36002;DHT22;22070;50.922;5.430;2022-11-20T06:44:11;5.20;99.90
36002;DHT22;22070;50.922;5.430;2022-11-20T06:46:36;5.20;99.90
36002;DHT22;22070;50.922;5.430;2022-11-20T06:49:02;5.20;99.90
36002;DHT22;22070;50.922;5.430;2022-11-20T06:51:28;5.40;99.90
36002;DHT22;22070;50.922;5.430;2022-11-20T06:53:53;5.40;99.90
36002;DHT22;22070;50.922;5.430;2022-11-20T06:56:19;5.50;99.90
36002;DHT22;22070;50.922;5.430;2022-11-20T06:58:45;5.40;99.90
36002;DHT22;22070;50.922;5.430;2022-11-20T07:01:12;5.30;99.90
36002;DHT22;22070;50.922;5.430;2022-11-20T07:03:39;5.40;99.90
36002;DHT22;22070;50.922;5.430;2022-11-20T07:06:06;5.40;99.90
36002;DHT22;22070;50.922;5.430;2022-11-20T07:08:32;5.40;99.90
36002;DHT22;22070;50.922;5.430;2022-11-20T07:10:59;5.80;99.90
36002;DHT22;22070;50.922;5.430;2022-11-20T07:13:26;5.40;99.90
36002;DHT22;22070;50.922;5.430;2022-11-20T07:15:52;5.50;99.90
36002;DHT22;22070;50.922;5.430;2022-11-20T07:18:18;5.40;99.90
36002;DHT22;22070;50.922;5.430;2022-11-20T07:20:43;5.40;99.90
36002;DHT22;22070;50.922;5.430;2022-11-20T07:23:09;5.40;99.90
36002;DHT22;22070;50.922;5.430;2022-11-20T07:25:35;5.40;99.90
36002;DHT22;22070;50.922;5.430;2022-11-20T07:28:01;5.40;99.90
36002;DHT22;22070;50.922;5.430;2022-11-20T07:30:30;5.40;99.90
36002;DHT22;22070;50.922;5.430;2022-11-20T07:32:56;5.40;99.90
36002;DHT22;22070;50.922;5.430;2022-11-20T07:35:25;5.40;99.90
36002;DHT22;22070;50.922;5.430;2022-11-20T07:37:51;5.40;99.90
36002;DHT22;22070;50.922;5.430;2022-11-20T07:40:18;5.40;99.90
36002;DHT22;22070;50.922;5.430;2022-11-20T07:42:51;5.40;99.90
36002;DHT22;22070;50.922;5.430;2022-11-20T07:45:21;5.40;99.90
36002;DHT22;22070;50.922;5.430;2022-11-20T07:47:46;5.50;99.90
36002;DHT22;22070;50.922;5.430;2022-11-20T07:50:13;5.50;99.90
36002;DHT22;22070;50.922;5.430;2022-11-20T07:52:39;5.50;99.90
36002;DHT22;22070;50.922;5.430;2022-11-20T07:55:05;5.50;99.90
36002;DHT22;22070;50.922;5.430;2022-11-20T07:57:30;5.60;99.90
36002;DHT22;22070;50.922;5.430;2022-11-20T07:59:56;5.60;99.90
36002;DHT22;22070;50.922;5.430;2022-11-20T08:02:22;5.60;99.90
36002;DHT22;22070;50.922;5.430;2022-11-20T08:04:47;5.60;99.90
36002;DHT22;22070;50.922;5.430;2022-11-20T08:07:13;5.70;99.90
36002;DHT22;22070;50.922;5.430;2022-11-20T08:09:39;5.70;99.90
36002;DHT22;22070;50.922;5.430;2022-11-20T08:12:05;5.70;99.90
36002;DHT22;22070;50.922;5.430;2022-11-20T08:14:49;5.80;99.90
36002;DHT22;22070;50.922;5.430;2022-11-20T08:17:14;6.10;99.90
36002;DHT22;22070;50.922;5.430;2022-11-20T08:19:40;6.00;99.90
36002;DHT22;22070;50.922;5.430;2022-11-20T08:22:05;6.00;99.90
36002;DHT22;22070;50.922;5.430;2022-11-20T08:24:31;6.00;99.90
36002;DHT22;22070;50.922;5.430;2022-11-20T08:26:58;6.00;99.90
36002;DHT22;22070;50.922;5.430;2022-11-20T08:29:25;6.10;99.90
36002;DHT22;22070;50.922;5.430;2022-11-20T08:31:51;6.10;99.90
36002;DHT22;22070;50.922;5.430;2022-11-20T08:34:17;6.00;99.90
36002;DHT22;22070;50.922;5.430;2022-11-20T08:36:42;6.10;99.90
36002;DHT22;22070;50.922;5.430;2022-11-20T08:39:11;6.10;99.90
36002;DHT22;22070;50.922;5.430;2022-11-20T08:41:37;6.10;99.90
36002;DHT22;22070;50.922;5.430;2022-11-20T08:44:04;6.10;99.90
36002;DHT22;22070;50.922;5.430;2022-11-20T08:46:34;6.20;99.90
36002;DHT22;22070;50.922;5.430;2022-11-20T08:49:02;6.10;99.90
36002;DHT22;22070;50.922;5.430;2022-11-20T08:51:28;6.20;99.90
36002;DHT22;22070;50.922;5.430;2022-11-20T08:53:53;6.30;99.90
36002;DHT22;22070;50.922;5.430;2022-11-20T08:56:19;6.30;99.90
36002;DHT22;22070;50.922;5.430;2022-11-20T08:58:45;6.30;99.90
36002;DHT22;22070;50.922;5.430;2022-11-20T09:01:11;6.40;99.90
36002;DHT22;22070;50.922;5.430;2022-11-20T09:03:36;6.40;99.90
36002;DHT22;22070;50.922;5.430;2022-11-20T09:06:04;6.40;99.90
36002;DHT22;22070;50.922;5.430;2022-11-20T09:08:31;6.40;99.90
36002;DHT22;22070;50.922;5.430;2022-11-20T09:10:57;6.40;99.90
36002;DHT22;22070;50.922;5.430;2022-11-20T09:13:24;6.50;99.90
36002;DHT22;22070;50.922;5.430;2022-11-20T09:15:54;6.60;99.90
36002;DHT22;22070;50.922;5.430;2022-11-20T09:18:21;6.60;99.90
36002;DHT22;22070;50.922;5.430;2022-11-20T09:20:47;6.70;99.90
36002;DHT22;22070;50.922;5.430;2022-11-20T09:23:13;6.70;99.90
36002;DHT22;22070;50.922;5.430;2022-11-20T09:25:38;6.80;99.90
36002;DHT22;22070;50.922;5.430;2022-11-20T09:28:04;6.70;99.90
36002;DHT22;22070;50.922;5.430;2022-11-20T09:30:30;6.70;99.90
36002;DHT22;22070;50.922;5.430;2022-11-20T09:32:56;6.70;99.90
36002;DHT22;22070;50.922;5.430;2022-11-20T09:35:22;6.80;99.90
36002;DHT22;22070;50.922;5.430;2022-11-20T09:37:47;6.90;99.90
36002;DHT22;22070;50.922;5.430;2022-11-20T09:40:28;6.80;99.90
36002;DHT22;22070;50.922;5.430;2022-11-20T09:43:03;6.80;99.90
36002;DHT22;22070;50.922;5.430;2022-11-20T09:51:20;7.00;99.90
36002;DHT22;22070;50.922;5.430;2022-11-20T09:54:27;7.10;99.90
36002;DHT22;22070;50.922;5.430;2022-11-20T09:56:58;7.00;99.90
36002;DHT22;22070;50.922;5.430;2022-11-20T09:59:42;7.10;99.90
36002;DHT22;22070;50.922;5.430;2022-11-20T10:05:20;7.30;99.90
36002;DHT22;22070;50.922;5.430;2022-11-20T10:07:55;7.20;99.90
36002;DHT22;22070;50.922;5.430;2022-11-20T10:10:34;7.30;99.90
36002;DHT22;22070;50.922;5.430;2022-11-20T10:21:24;7.20;99.90
36002;DHT22;22070;50.922;5.430;2022-11-20T10:29:32;7.50;99.90
36002;DHT22;22070;50.922;5.430;2022-11-20T10:32:07;7.50;99.90
36002;DHT22;22070;50.922;5.430;2022-11-20T10:35:00;7.50;99.90
36002;DHT22;22070;50.922;5.430;2022-11-20T10:37:27;7.50;99.90
36002;DHT22;22070;50.922;5.430;2022-11-20T10:40:17;7.60;99.90
36002;DHT22;22070;50.922;5.430;2022-11-20T10:43:02;7.60;99.90
36002;DHT22;22070;50.922;5.430;2022-11-20T10:48:12;7.70;99.90
36002;DHT22;22070;50.922;5.430;2022-11-20T10:56:35;7.80;99.90
36002;DHT22;22070;50.922;5.430;2022-11-20T11:01:43;7.80;99.90
36002;DHT22;22070;50.922;5.430;2022-11-20T11:04:37;7.80;99.90
36002;DHT22;22070;50.922;5.430;2022-11-20T11:07:17;8.10;99.90
36002;DHT22;22070;50.922;5.430;2022-11-20T11:10:51;8.10;99.90
36002;DHT22;22070;50.922;5.430;2022-11-20T11:12:57;8.10;99.90
36002;DHT22;22070;50.922;5.430;2022-11-20T11:15:40;8.00;99.90
36002;DHT22;22070;50.922;5.430;2022-11-20T11:18:09;8.10;99.90
36002;DHT22;22070;50.922;5.430;2022-11-20T11:20:35;8.20;99.90
36002;DHT22;22070;50.922;5.430;2022-11-20T11:23:01;8.40;99.90
36002;DHT22;22070;50.922;5.430;2022-11-20T11:25:32;8.40;99.90
36002;DHT22;22070;50.922;5.430;2022-11-20T11:28:19;8.50;99.90
36002;DHT22;22070;50.922;5.430;2022-11-20T11:30:45;8.40;99.90
36002;DHT22;22070;50.922;5.430;2022-11-20T11:33:20;8.50;99.90
36002;DHT22;22070;50.922;5.430;2022-11-20T11:35:57;8.50;99.90
36002;DHT22;22070;50.922;5.430;2022-11-20T11:38:39;8.60;99.90
36002;DHT22;22070;50.922;5.430;2022-11-20T11:41:07;8.50;99.90
36002;DHT22;22070;50.922;5.430;2022-11-20T11:43:36;8.60;99.90
36002;DHT22;22070;50.922;5.430;2022-11-20T11:46:33;8.80;99.90
36002;DHT22;22070;50.922;5.430;2022-11-20T11:54:24;8.80;99.90
36002;DHT22;22070;50.922;5.430;2022-11-20T11:56:51;8.80;99.90
36002;DHT22;22070;50.922;5.430;2022-11-20T11:59:39;8.90;99.90
36002;DHT22;22070;50.922;5.430;2022-11-20T12:02:27;9.00;99.90
36002;DHT22;22070;50.922;5.430;2022-11-20T12:04:59;9.10;99.90
36002;DHT22;22070;50.922;5.430;2022-11-20T12:10:19;9.20;99.90
36002;DHT22;22070;50.922;5.430;2022-11-20T12:12:50;9.20;99.90
36002;DHT22;22070;50.922;5.430;2022-11-20T12:15:27;9.30;99.90
36002;DHT22;22070;50.922;5.430;2022-11-20T12:17:54;9.30;99.90
36002;DHT22;22070;50.922;5.430;2022-11-20T12:20:24;9.30;99.90
36002;DHT22;22070;50.922;5.430;2022-11-20T12:23:04;9.40;99.90
36002;DHT22;22070;50.922;5.430;2022-11-20T12:25:35;9.40;99.90
36002;DHT22;22070;50.922;5.430;2022-11-20T12:48:02;9.90;99.90
36002;DHT22;22070;50.922;5.430;2022-11-20T12:53:44;9.90;99.90
36002;DHT22;22070;50.922;5.430;2022-11-20T12:56:30;9.90;99.90
36002;DHT22;22070;50.922;5.430;2022-11-20T13:07:08;9.90;99.90
36002;DHT22;22070;50.922;5.430;2022-11-20T13:09:38;10.00;99.90
36002;DHT22;22070;50.922;5.430;2022-11-20T13:12:16;9.90;99.90
36002;DHT22;22070;50.922;5.430;2022-11-20T13:20:03;9.90;99.90
36002;DHT22;22070;50.922;5.430;2022-11-20T13:22:44;9.80;99.90
36002;DHT22;22070;50.922;5.430;2022-11-20T13:28:00;9.90;99.90
36002;DHT22;22070;50.922;5.430;2022-11-20T13:30:27;9.90;99.90
36002;DHT22;22070;50.922;5.430;2022-11-20T13:33:06;9.80;99.90
36002;DHT22;22070;50.922;5.430;2022-11-20T13:35:37;9.80;99.90
36002;DHT22;22070;50.922;5.430;2022-11-20T13:38:13;9.70;99.90
36002;DHT22;22070;50.922;5.430;2022-11-20T13:40:52;9.60;99.90
36002;DHT22;22070;50.922;5.430;2022-11-20T13:43:22;9.60;99.90
36002;DHT22;22070;50.922;5.430;2022-11-20T13:46:00;9.40;99.90
36002;DHT22;22070;50.922;5.430;2022-11-20T13:48:32;9.40;99.90
36002;DHT22;22070;50.922;5.430;2022-11-20T13:54:09;9.10;99.90
36002;DHT22;22070;50.922;5.430;2022-11-20T14:01:33;8.90;99.90
36002;DHT22;22070;50.922;5.430;2022-11-20T14:04:06;8.80;99.90
36002;DHT22;22070;50.922;5.430;2022-11-20T14:06:44;8.90;99.90
36002;DHT22;22070;50.922;5.430;2022-11-20T14:09:13;8.80;99.90
36002;DHT22;22070;50.922;5.430;2022-11-20T14:11:49;8.80;99.90
36002;DHT22;22070;50.922;5.430;2022-11-20T14:14:20;8.90;99.90
36002;DHT22;22070;50.922;5.430;2022-11-20T14:16:48;8.90;99.90
36002;DHT22;22070;50.922;5.430;2022-11-20T14:19:21;9.00;99.90
36002;DHT22;22070;50.922;5.430;2022-11-20T14:21:52;9.00;99.90
36002;DHT22;22070;50.922;5.430;2022-11-20T14:24:23;8.90;99.90
36002;DHT22;22070;50.922;5.430;2022-11-20T14:26:50;8.90;99.90
36002;DHT22;22070;50.922;5.430;2022-11-20T14:29:18;8.80;99.90
36002;DHT22;22070;50.922;5.430;2022-11-20T14:31:50;8.70;99.90
36002;DHT22;22070;50.922;5.430;2022-11-20T14:34:24;8.70;99.90
36002;DHT22;22070;50.922;5.430;2022-11-20T14:36:53;8.80;99.90
36002;DHT22;22070;50.922;5.430;2022-11-20T14:39:30;8.70;99.90
36002;DHT22;22070;50.922;5.430;2022-11-20T14:41:56;8.60;99.90
36002;DHT22;22070;50.922;5.430;2022-11-20T14:44:27;8.60;99.90
36002;DHT22;22070;50.922;5.430;2022-11-20T14:46:55;8.60;99.90
36002;DHT22;22070;50.922;5.430;2022-11-20T14:49:21;8.70;99.90
36002;DHT22;22070;50.922;5.430;2022-11-20T14:51:47;8.60;99.90
36002;DHT22;22070;50.922;5.430;2022-11-20T14:54:23;8.50;99.90
36002;DHT22;22070;50.922;5.430;2022-11-20T14:57:02;8.50;99.90
36002;DHT22;22070;50.922;5.430;2022-11-20T14:59:33;8.50;99.90
36002;DHT22;22070;50.922;5.430;2022-11-20T15:02:00;8.40;99.90
36002;DHT22;22070;50.922;5.430;2022-11-20T15:04:26;8.40;99.90
36002;DHT22;22070;50.922;5.430;2022-11-20T15:06:54;8.40;99.90
36002;DHT22;22070;50.922;5.430;2022-11-20T15:09:21;8.40;99.90
36002;DHT22;22070;50.922;5.430;2022-11-20T15:11:58;8.60;99.90
36002;DHT22;22070;50.922;5.430;2022-11-20T15:14:27;8.40;99.90
36002;DHT22;22070;50.922;5.430;2022-11-20T15:16:53;8.50;99.90
36002;DHT22;22070;50.922;5.430;2022-11-20T15:19:22;8.50;99.90
36002;DHT22;22070;50.922;5.430;2022-11-20T15:21:48;8.40;99.90
36002;DHT22;22070;50.922;5.430;2022-11-20T15:24:14;8.40;99.90
36002;DHT22;22070;50.922;5.430;2022-11-20T15:26:40;8.40;99.90
36002;DHT22;22070;50.922;5.430;2022-11-20T15:29:14;8.30;99.90
36002;DHT22;22070;50.922;5.430;2022-11-20T15:31:44;8.20;99.90
36002;DHT22;22070;50.922;5.430;2022-11-20T15:34:16;8.20;99.90
36002;DHT22;22070;50.922;5.430;2022-11-20T15:36:42;8.30;99.90
36002;DHT22;22070;50.922;5.430;2022-11-20T15:39:09;8.30;99.90
36002;DHT22;22070;50.922;5.430;2022-11-20T15:41:35;8.40;99.90
36002;DHT22;22070;50.922;5.430;2022-11-20T15:44:02;8.40;99.90
36002;DHT22;22070;50.922;5.430;2022-11-20T15:46:30;8.30;99.90
36002;DHT22;22070;50.922;5.430;2022-11-20T15:48:59;8.30;99.90
36002;DHT22;22070;50.922;5.430;2022-11-20T15:51:44;8.30;99.90
36002;DHT22;22070;50.922;5.430;2022-11-20T15:54:18;8.30;99.90
36002;DHT22;22070;50.922;5.430;2022-11-20T15:56:48;8.40;99.90
36002;DHT22;22070;50.922;5.430;2022-11-20T15:59:14;8.30;99.90
36002;DHT22;22070;50.922;5.430;2022-11-20T16:01:41;8.40;99.90
36002;DHT22;22070;50.922;5.430;2022-11-20T16:04:14;8.40;99.90
36002;DHT22;22070;50.922;5.430;2022-11-20T16:06:40;8.50;99.90
36002;DHT22;22070;50.922;5.430;2022-11-20T16:09:06;8.40;99.90
36002;DHT22;22070;50.922;5.430;2022-11-20T16:11:32;8.40;99.90
36002;DHT22;22070;50.922;5.430;2022-11-20T16:13:58;8.40;99.90
36002;DHT22;22070;50.922;5.430;2022-11-20T16:16:42;8.30;99.90
36002;DHT22;22070;50.922;5.430;2022-11-20T16:19:15;8.40;99.90
36002;DHT22;22070;50.922;5.430;2022-11-20T16:21:41;8.40;99.90
36002;DHT22;22070;50.922;5.430;2022-11-20T16:24:09;8.40;99.90
36002;DHT22;22070;50.922;5.430;2022-11-20T16:26:36;8.40;99.90
36002;DHT22;22070;50.922;5.430;2022-11-20T16:29:04;8.40;99.90
36002;DHT22;22070;50.922;5.430;2022-11-20T16:31:30;8.50;99.90
36002;DHT22;22070;50.922;5.430;2022-11-20T16:33:59;8.50;99.90
36002;DHT22;22070;50.922;5.430;2022-11-20T16:36:26;8.50;99.90
36002;DHT22;22070;50.922;5.430;2022-11-20T16:39:01;8.50;99.90
36002;DHT22;22070;50.922;5.430;2022-11-20T16:41:29;8.60;99.90
36002;DHT22;22070;50.922;5.430;2022-11-20T16:43:57;8.60;99.90
36002;DHT22;22070;50.922;5.430;2022-11-20T16:46:28;8.70;99.90
36002;DHT22;22070;50.922;5.430;2022-11-20T16:48:57;8.70;99.90
36002;DHT22;22070;50.922;5.430;2022-11-20T16:51:24;8.70;99.90
36002;DHT22;22070;50.922;5.430;2022-11-20T16:53:50;8.90;99.90
36002;DHT22;22070;50.922;5.430;2022-11-20T16:56:21;8.80;99.90
36002;DHT22;22070;50.922;5.430;2022-11-20T16:58:48;8.80;99.90
36002;DHT22;22070;50.922;5.430;2022-11-20T17:01:15;8.90;99.90
36002;DHT22;22070;50.922;5.430;2022-11-20T17:03:41;8.90;99.90
36002;DHT22;22070;50.922;5.430;2022-11-20T17:06:18;9.00;99.90
36002;DHT22;22070;50.922;5.430;2022-11-20T17:08:44;8.90;99.90
36002;DHT22;22070;50.922;5.430;2022-11-20T17:11:13;8.90;99.90
36002;DHT22;22070;50.922;5.430;2022-11-20T17:13:39;9.00;99.90
36002;DHT22;22070;50.922;5.430;2022-11-20T17:16:13;9.00;99.90
36002;DHT22;22070;50.922;5.430;2022-11-20T17:18:40;9.00;99.90
36002;DHT22;22070;50.922;5.430;2022-11-20T17:21:06;9.00;99.90
36002;DHT22;22070;50.922;5.430;2022-11-20T17:23:34;9.00;99.90
36002;DHT22;22070;50.922;5.430;2022-11-20T17:26:11;9.10;99.90